createdAt,value
2022-08-08T00:00:50.534Z,4.27
2022-08-08T00:02:33.007Z,1.67
2022-08-08T00:05:09.698Z,2.87
2022-08-08T00:07:41.244Z,3.80
2022-08-08T00:10:13.584Z,2.73
2022-08-08T00:12:48.426Z,3.13
2022-08-08T00:15:57.511Z,2.97
2022-08-08T00:18:22.023Z,1.90
2022-08-08T00:20:51.863Z,2.90
2022-08-08T00:23:28.476Z,1.60
2022-08-08T00:26:13.352Z,2.90
2022-08-08T00:28:44.585Z,1.93
2022-08-08T00:32:20.243Z,2.37
2022-08-08T00:34:32.387Z,2.97
2022-08-08T00:37:47.124Z,2.27
2022-08-08T00:41:12.667Z,2.80
2022-08-08T00:43:24.656Z,3.57
2022-08-08T00:46:17.748Z,3.13
2022-08-08T00:49:21.885Z,5.07
2022-08-08T00:52:08.837Z,3.63
2022-08-08T00:55:05.720Z,4.60
2022-08-08T00:57:57.090Z,5.20
2022-08-08T01:00:27.391Z,3.00
2022-08-08T01:04:01.386Z,2.27
2022-08-08T01:06:17.995Z,2.00
2022-08-08T01:09:36.529Z,6.20
2022-08-08T01:12:13.465Z,2.37
2022-08-08T01:15:00.697Z,2.67
2022-08-08T01:17:53.306Z,3.77
2022-08-08T01:20:35.591Z,3.40
2022-08-08T01:24:05.955Z,1.57
2022-08-08T01:26:24.136Z,2.20
2022-08-08T01:29:18.111Z,2.83
2022-08-08T01:32:15.603Z,4.07
2022-08-08T01:35:11.407Z,2.60
2022-08-08T01:37:59.187Z,3.00
2022-08-08T01:40:29.505Z,3.63
2022-08-08T01:43:02.910Z,4.30
2022-08-08T01:45:39.047Z,3.37
2022-08-08T01:48:16.121Z,1.53
2022-08-08T01:51:29.844Z,4.23
2022-08-08T01:55:19.646Z,2.50
2022-08-08T01:57:02.192Z,5.00
2022-08-08T01:59:38.079Z,4.00
2022-08-08T02:02:34.735Z,2.03
2022-08-08T02:05:14.161Z,3.17
2022-08-08T02:07:56.675Z,3.43
2022-08-08T02:10:37.268Z,3.30
2022-08-08T02:13:54.397Z,2.93
2022-08-08T02:16:21.288Z,4.70
2022-08-08T02:18:58.813Z,3.20
2022-08-08T02:21:48.926Z,3.13
2022-08-08T02:24:20.281Z,1.63
2022-08-08T02:26:52.798Z,2.80
2022-08-08T02:29:47.073Z,6.47
2022-08-08T02:32:36.014Z,2.73
2022-08-08T02:36:02.524Z,3.67
2022-08-08T02:38:30.342Z,2.10
2022-08-08T02:41:17.911Z,4.07
2022-08-08T02:44:43.140Z,3.27
2022-08-08T02:47:16.963Z,3.10
2022-08-08T02:50:05.729Z,3.03
2022-08-08T02:52:58.775Z,3.27
2022-08-08T02:55:48.021Z,6.53
2022-08-08T02:58:47.730Z,4.50
2022-08-08T03:01:32.653Z,3.30
2022-08-08T03:05:03.758Z,3.47
2022-08-08T03:07:41.572Z,1.77
2022-08-08T03:10:37.082Z,3.20
2022-08-08T03:13:33.885Z,3.07
2022-08-08T03:16:36.041Z,3.13
2022-08-08T03:19:21.135Z,3.07
2022-08-08T03:21:58.917Z,4.30
2022-08-08T03:24:29.387Z,2.90
2022-08-08T03:27:00.398Z,3.23
2022-08-08T03:29:54.517Z,6.53
2022-08-08T03:32:41.392Z,3.40
2022-08-08T03:35:11.485Z,1.67
2022-08-08T03:38:52.653Z,3.37
2022-08-08T03:40:32.122Z,5.43
2022-08-08T03:43:15.636Z,3.63
2022-08-08T03:46:06.816Z,4.77
2022-08-08T03:49:09.491Z,5.53
2022-08-08T03:51:40.613Z,3.97
2022-08-08T03:54:10.401Z,4.30
2022-08-08T03:56:46.386Z,3.67
2022-08-08T03:59:23.088Z,2.37
2022-08-08T04:02:13.012Z,4.07
2022-08-08T04:04:39.909Z,3.70
2022-08-08T04:07:10.421Z,2.63
2022-08-08T04:10:00.666Z,3.80
2022-08-08T04:12:35.080Z,3.27
2022-08-08T04:15:03.963Z,3.50
2022-08-08T04:17:57.745Z,2.20
2022-08-08T04:20:20.346Z,2.90
2022-08-08T04:22:57.112Z,4.67
2022-08-08T04:25:29.940Z,3.57
2022-08-08T04:28:37.084Z,6.00
2022-08-08T04:30:50.508Z,6.00
2022-08-08T04:33:23.501Z,4.77
2022-08-08T04:35:51.804Z,3.30
2022-08-08T04:38:21.335Z,2.93
2022-08-08T04:40:51.738Z,4.50
2022-08-08T04:43:31.553Z,4.40
2022-08-08T04:46:12.246Z,3.53
2022-08-08T04:48:43.372Z,7.47
2022-08-08T04:51:11.982Z,3.17
2022-08-08T04:54:36.106Z,2.90
2022-08-08T04:56:33.896Z,4.23
2022-08-08T04:59:03.357Z,4.03
2022-08-08T05:01:35.682Z,3.80
2022-08-08T05:04:16.953Z,3.87
2022-08-08T05:06:47.252Z,6.37
2022-08-08T05:09:18.787Z,4.33
2022-08-08T05:11:56.939Z,4.67
2022-08-08T05:14:26.870Z,3.40
2022-08-08T05:17:01.379Z,5.10
2022-08-08T05:20:09.655Z,4.73
2022-08-08T05:22:18.278Z,5.70
2022-08-08T05:24:48.209Z,5.17
2022-08-08T05:27:17.003Z,4.80
2022-08-08T05:29:51.642Z,7.63
2022-08-08T05:32:24.511Z,5.27
2022-08-08T05:34:55.000Z,5.80
2022-08-08T05:37:39.227Z,5.17
2022-08-08T05:40:14.842Z,4.90
2022-08-08T05:42:45.587Z,7.20
2022-08-08T05:45:25.519Z,5.67
2022-08-08T05:48:01.624Z,10.20
2022-08-08T05:50:38.780Z,18.87
2022-08-08T05:53:53.525Z,53.43
2022-08-08T05:56:07.737Z,138.30
2022-08-08T05:58:57.020Z,355.20
2022-08-08T06:01:55.443Z,715.57
2022-08-08T06:04:22.560Z,870.13
2022-08-08T06:15:03.789Z,930.30
2022-08-08T06:29:49.316Z,667.43
2022-08-08T06:32:09.928Z,983.30
2022-08-08T06:34:41.088Z,999.90
2022-08-08T06:37:24.418Z,977.70
2022-08-08T06:44:58.611Z,999.90
2022-08-08T06:50:31.956Z,811.50
2022-08-08T06:53:01.516Z,981.87
2022-08-08T06:55:42.242Z,999.90
2022-08-08T06:58:11.707Z,999.90
2022-08-08T07:00:41.185Z,904.10
2022-08-08T07:03:19.401Z,763.27
2022-08-08T07:06:02.527Z,521.37
2022-08-08T07:08:31.618Z,398.47
2022-08-08T07:11:01.209Z,244.83
2022-08-08T07:13:34.358Z,273.90
2022-08-08T07:16:12.344Z,181.90
2022-08-08T07:18:46.265Z,177.10
2022-08-08T07:21:20.761Z,175.33
2022-08-08T07:24:00.938Z,131.27
2022-08-08T07:26:35.405Z,105.20
2022-08-08T07:29:05.642Z,93.93
2022-08-08T07:31:37.275Z,104.23
2022-08-08T07:34:08.770Z,88.70
2022-08-08T07:36:42.076Z,84.97
2022-08-08T07:39:17.332Z,91.63
2022-08-08T07:41:58.559Z,84.67
2022-08-08T07:44:40.199Z,95.27
2022-08-08T07:47:09.790Z,83.33
2022-08-08T07:49:40.226Z,76.27
2022-08-08T07:52:13.440Z,74.80
2022-08-08T07:54:44.983Z,78.30
2022-08-08T07:57:23.809Z,68.67
2022-08-08T07:59:59.755Z,75.00
2022-08-08T08:02:34.716Z,72.60
2022-08-08T08:05:15.143Z,69.00
2022-08-08T08:07:45.902Z,76.60
2022-08-08T08:10:14.930Z,65.43
2022-08-08T08:12:48.967Z,67.10
2022-08-08T08:15:21.496Z,70.60
2022-08-08T08:17:55.413Z,67.17
2022-08-08T08:20:30.306Z,60.70
2022-08-08T08:23:00.447Z,59.83
2022-08-08T08:25:42.091Z,63.63
2022-08-08T08:28:21.123Z,64.50
2022-08-08T08:30:52.159Z,64.20
2022-08-08T08:33:21.725Z,53.53
2022-08-08T08:36:19.844Z,59.13
2022-08-08T08:38:49.490Z,70.03
2022-08-08T08:41:20.318Z,79.07
2022-08-08T08:43:52.145Z,67.70
2022-08-08T08:46:25.995Z,72.93
2022-08-08T08:48:55.231Z,70.30
2022-08-08T08:51:26.011Z,76.20
2022-08-08T08:53:59.707Z,77.67
2022-08-08T08:56:29.708Z,72.97
2022-08-08T08:58:58.631Z,83.70
2022-08-08T09:01:32.718Z,101.17
2022-08-08T09:04:01.761Z,94.50
2022-08-08T09:06:34.088Z,115.97
2022-08-08T09:09:18.837Z,108.00
2022-08-08T09:12:01.499Z,134.60
2022-08-08T09:14:30.711Z,130.07
2022-08-08T09:16:58.839Z,133.00
2022-08-08T09:21:59.987Z,135.87
2022-08-08T09:22:25.836Z,154.93
2022-08-08T09:24:58.453Z,177.73
2022-08-08T09:27:55.898Z,163.80
2022-08-08T09:30:17.891Z,192.27
2022-08-08T09:33:55.431Z,215.40
2022-08-08T09:35:48.644Z,227.87
2022-08-08T09:38:23.147Z,207.67
2022-08-08T09:40:59.797Z,224.13
2022-08-08T09:44:05.115Z,243.00
2022-08-08T09:46:25.445Z,270.37
2022-08-08T09:49:04.406Z,285.63
2022-08-08T09:52:06.447Z,269.23
2022-08-08T09:54:38.200Z,289.07
2022-08-08T09:57:16.057Z,304.53
2022-08-08T10:00:01.908Z,291.70
2022-08-08T10:02:36.391Z,340.73
2022-08-08T10:05:14.605Z,354.93
2022-08-08T10:07:47.974Z,368.17
2022-08-08T10:10:19.789Z,369.10
2022-08-08T10:13:14.118Z,364.90
2022-08-08T10:16:00.633Z,404.30
2022-08-08T10:18:30.890Z,438.33
2022-08-08T10:21:08.162Z,425.00
2022-08-08T10:23:44.831Z,440.27
2022-08-08T10:26:25.911Z,430.73
2022-08-08T10:29:04.743Z,489.43
2022-08-08T10:32:06.367Z,473.67
2022-08-08T10:34:38.079Z,573.33
2022-08-08T10:37:08.622Z,525.93
2022-08-08T10:39:54.485Z,510.00
2022-08-08T10:42:27.408Z,561.23
2022-08-08T10:45:02.789Z,517.63
2022-08-08T10:47:43.531Z,532.23
2022-08-08T10:50:15.654Z,554.93
2022-08-08T10:52:44.686Z,578.47
2022-08-08T10:55:15.608Z,547.03
2022-08-08T10:58:05.658Z,610.70
2022-08-08T11:00:48.697Z,606.33
2022-08-08T11:03:37.147Z,671.10
2022-08-08T11:06:13.980Z,673.57
2022-08-08T11:08:49.990Z,712.67
2022-08-08T11:11:32.210Z,693.30
2022-08-08T11:14:12.369Z,717.63
2022-08-08T11:16:46.647Z,689.87
2022-08-08T11:19:17.089Z,682.60
2022-08-08T11:21:55.583Z,709.83
2022-08-08T11:24:27.087Z,727.43
2022-08-08T11:26:58.413Z,744.07
2022-08-08T11:29:41.501Z,741.97
2022-08-08T11:32:18.960Z,785.77
2022-08-08T11:38:37.174Z,811.87
2022-08-08T11:40:26.622Z,840.67
2022-08-08T11:42:56.157Z,828.77
2022-08-08T11:45:24.726Z,899.70
2022-08-08T11:48:02.665Z,999.90
2022-08-08T11:57:23.941Z,999.90
2022-08-08T12:06:15.910Z,999.90
2022-08-08T12:08:44.826Z,999.90
2022-08-08T12:24:15.825Z,999.90
2022-08-08T12:30:04.408Z,999.90
2022-08-08T12:32:42.036Z,999.90
2022-08-08T12:35:20.770Z,999.90
2022-08-08T13:08:03.830Z,583.67
2022-08-08T13:10:32.697Z,999.90
2022-08-08T13:13:06.215Z,999.90
2022-08-08T13:29:01.338Z,999.90
2022-08-08T13:58:08.336Z,999.90
2022-08-08T14:04:35.257Z,999.90
2022-08-08T14:14:14.384Z,999.90
2022-08-08T14:24:07.768Z,999.90
2022-08-08T14:26:33.300Z,999.90
2022-08-08T14:39:11.513Z,999.90
2022-08-08T14:51:52.001Z,999.90
2022-08-08T15:11:06.316Z,999.90
2022-08-08T15:20:36.341Z,999.90
2022-08-08T15:46:03.899Z,999.90
2022-08-08T16:00:26.733Z,999.90
2022-08-08T16:02:57.839Z,999.90
2022-08-08T16:05:35.486Z,999.90
2022-08-08T16:13:09.302Z,999.90
2022-08-08T16:25:11.467Z,999.90
2022-08-08T16:27:43.579Z,999.90
2022-08-08T16:33:19.253Z,999.90
2022-08-08T17:16:37.617Z,999.90
2022-08-08T17:19:05.702Z,999.90
2022-08-08T17:21:41.384Z,999.90
2022-08-08T17:24:10.055Z,999.90
2022-08-08T18:10:13.853Z,999.90
2022-08-08T18:12:42.871Z,999.90
